sensor_id;sensor_type;location;lat;lon;timestamp;pressure;altitude;pressure_sealevel;temperature;humidity
2397;BME280;1209;48.410;9.054;2024-02-16T00:00:16;96108.72;;;9.43;100.00
2397;BME280;1209;48.410;9.054;2024-02-16T00:02:42;96112.81;;;9.38;100.00
2397;BME280;1209;48.410;9.054;2024-02-16T00:05:11;96112.78;;;9.46;100.00
2397;BME280;1209;48.410;9.054;2024-02-16T00:07:38;96113.22;;;9.19;100.00
2397;BME280;1209;48.410;9.054;2024-02-16T00:10:04;96113.47;;;8.93;100.00
2397;BME280;1209;48.410;9.054;2024-02-16T00:12:33;96113.88;;;9.21;100.00
2397;BME280;1209;48.410;9.054;2024-02-16T00:14:59;96107.91;;;9.12;100.00
2397;BME280;1209;48.410;9.054;2024-02-16T00:17:25;96107.16;;;8.87;100.00
2397;BME280;1209;48.410;9.054;2024-02-16T00:19:56;96100.94;;;8.96;100.00
2397;BME280;1209;48.410;9.054;2024-02-16T00:22:22;96108.53;;;9.14;100.00
2397;BME280;1209;48.410;9.054;2024-02-16T00:24:48;96104.69;;;9.33;100.00
2397;BME280;1209;48.410;9.054;2024-02-16T00:27:14;96099.56;;;9.17;100.00
2397;BME280;1209;48.410;9.054;2024-02-16T00:29:40;96092.47;;;9.33;100.00
2397;BME280;1209;48.410;9.054;2024-02-16T00:32:05;96098.09;;;9.45;100.00
2397;BME280;1209;48.410;9.054;2024-02-16T00:34:32;96098.91;;;9.45;100.00
2397;BME280;1209;48.410;9.054;2024-02-16T00:36:57;96096.81;;;9.49;100.00
2397;BME280;1209;48.410;9.054;2024-02-16T00:39:22;96081.59;;;8.91;100.00
2397;BME280;1209;48.410;9.054;2024-02-16T00:41:48;96086.94;;;9.05;100.00
2397;BME280;1209;48.410;9.054;2024-02-16T00:44:13;96091.59;;;9.18;100.00
2397;BME280;1209;48.410;9.054;2024-02-16T00:46:38;96090.91;;;9.24;100.00
2397;BME280;1209;48.410;9.054;2024-02-16T00:49:04;96081.59;;;9.30;100.00
2397;BME280;1209;48.410;9.054;2024-02-16T00:51:29;96082.69;;;8.96;100.00
2397;BME280;1209;48.410;9.054;2024-02-16T00:53:55;96079.56;;;9.09;100.00
2397;BME280;1209;48.410;9.054;2024-02-16T00:56:20;96075.31;;;9.16;100.00
2397;BME280;1209;48.410;9.054;2024-02-16T00:58:45;96078.84;;;9.23;100.00
2397;BME280;1209;48.410;9.054;2024-02-16T01:01:11;96076.47;;;9.13;100.00
2397;BME280;1209;48.410;9.054;2024-02-16T01:03:38;96075.06;;;8.95;100.00
2397;BME280;1209;48.410;9.054;2024-02-16T01:06:04;96073.91;;;8.97;100.00
2397;BME280;1209;48.410;9.054;2024-02-16T01:08:30;96076.88;;;9.25;100.00
2397;BME280;1209;48.410;9.054;2024-02-16T01:10:55;96080.78;;;9.29;100.00
2397;BME280;1209;48.410;9.054;2024-02-16T01:13:21;96080.19;;;9.19;100.00
2397;BME280;1209;48.410;9.054;2024-02-16T01:15:46;96075.53;;;9.06;100.00
2397;BME280;1209;48.410;9.054;2024-02-16T01:18:11;96076.69;;;9.04;100.00
2397;BME280;1209;48.410;9.054;2024-02-16T01:20:37;96076.72;;;8.88;100.00
2397;BME280;1209;48.410;9.054;2024-02-16T01:23:02;96070.66;;;8.95;100.00
2397;BME280;1209;48.410;9.054;2024-02-16T01:25:30;96083.69;;;9.03;100.00
2397;BME280;1209;48.410;9.054;2024-02-16T01:27:55;96085.91;;;9.14;100.00
2397;BME280;1209;48.410;9.054;2024-02-16T01:30:20;96079.53;;;9.17;100.00
2397;BME280;1209;48.410;9.054;2024-02-16T01:32:46;96085.66;;;8.93;100.00
2397;BME280;1209;48.410;9.054;2024-02-16T01:35:12;96083.34;;;8.98;100.00
2397;BME280;1209;48.410;9.054;2024-02-16T01:37:40;96085.13;;;9.06;100.00
2397;BME280;1209;48.410;9.054;2024-02-16T01:40:06;96086.44;;;9.02;100.00
2397;BME280;1209;48.410;9.054;2024-02-16T01:42:32;96083.13;;;9.16;100.00
2397;BME280;1209;48.410;9.054;2024-02-16T01:44:58;96091.72;;;9.25;100.00
2397;BME280;1209;48.410;9.054;2024-02-16T01:47:23;96088.06;;;9.03;100.00
2397;BME280;1209;48.410;9.054;2024-02-16T01:49:48;96085.25;;;9.12;100.00
2397;BME280;1209;48.410;9.054;2024-02-16T01:52:14;96085.91;;;9.14;100.00
2397;BME280;1209;48.410;9.054;2024-02-16T01:54:39;96087.78;;;9.29;100.00
2397;BME280;1209;48.410;9.054;2024-02-16T01:57:05;96075.38;;;9.31;100.00
2397;BME280;1209;48.410;9.054;2024-02-16T01:59:31;96078.97;;;9.30;100.00
2397;BME280;1209;48.410;9.054;2024-02-16T02:01:58;96077.00;;;9.32;100.00
2397;BME280;1209;48.410;9.054;2024-02-16T02:04:24;96074.16;;;9.19;100.00
2397;BME280;1209;48.410;9.054;2024-02-16T02:06:49;96071.59;;;9.10;100.00
2397;BME280;1209;48.410;9.054;2024-02-16T02:09:14;96071.72;;;8.78;100.00
2397;BME280;1209;48.410;9.054;2024-02-16T02:11:40;96080.00;;;9.21;100.00
2397;BME280;1209;48.410;9.054;2024-02-16T02:14:05;96070.44;;;9.13;100.00
2397;BME280;1209;48.410;9.054;2024-02-16T02:16:30;96069.59;;;9.21;100.00
2397;BME280;1209;48.410;9.054;2024-02-16T02:18:55;96064.75;;;9.09;100.00
2397;BME280;1209;48.410;9.054;2024-02-16T02:21:21;96062.19;;;9.01;100.00
2397;BME280;1209;48.410;9.054;2024-02-16T02:23:46;96061.59;;;8.83;100.00
2397;BME280;1209;48.410;9.054;2024-02-16T02:26:14;96053.66;;;8.76;100.00
2397;BME280;1209;48.410;9.054;2024-02-16T02:28:39;96046.28;;;8.88;100.00
2397;BME280;1209;48.410;9.054;2024-02-16T02:31:04;96044.66;;;8.87;100.00
2397;BME280;1209;48.410;9.054;2024-02-16T02:33:30;96052.28;;;9.28;100.00
2397;BME280;1209;48.410;9.054;2024-02-16T02:35:55;96058.41;;;9.12;100.00
2397;BME280;1209;48.410;9.054;2024-02-16T02:38:20;96061.84;;;9.04;100.00
2397;BME280;1209;48.410;9.054;2024-02-16T02:40:46;96058.16;;;8.99;100.00
2397;BME280;1209;48.410;9.054;2024-02-16T02:43:11;96057.13;;;9.08;100.00
2397;BME280;1209;48.410;9.054;2024-02-16T02:45:37;96051.28;;;9.06;100.00
2397;BME280;1209;48.410;9.054;2024-02-16T02:48:02;96050.47;;;8.97;100.00
2397;BME280;1209;48.410;9.054;2024-02-16T02:50:27;96039.22;;;9.05;100.00
2397;BME280;1209;48.410;9.054;2024-02-16T02:52:53;96033.72;;;8.92;100.00
2397;BME280;1209;48.410;9.054;2024-02-16T02:55:18;96030.50;;;8.90;100.00
2397;BME280;1209;48.410;9.054;2024-02-16T02:57:44;96019.72;;;8.93;100.00
2397;BME280;1209;48.410;9.054;2024-02-16T03:00:09;96029.09;;;9.10;100.00
2397;BME280;1209;48.410;9.054;2024-02-16T03:02:38;96026.75;;;9.23;100.00
2397;BME280;1209;48.410;9.054;2024-02-16T03:05:06;96029.47;;;9.30;100.00
2397;BME280;1209;48.410;9.054;2024-02-16T03:07:35;96028.81;;;9.05;100.00
2397;BME280;1209;48.410;9.054;2024-02-16T03:10:01;96024.59;;;9.27;100.00
2397;BME280;1209;48.410;9.054;2024-02-16T03:12:26;96029.41;;;9.38;100.00
2397;BME280;1209;48.410;9.054;2024-02-16T03:14:52;96023.78;;;9.26;100.00
2397;BME280;1209;48.410;9.054;2024-02-16T03:17:18;96027.00;;;9.36;100.00
2397;BME280;1209;48.410;9.054;2024-02-16T03:19:43;96026.50;;;9.10;100.00
2397;BME280;1209;48.410;9.054;2024-02-16T03:22:09;96027.56;;;9.24;100.00
2397;BME280;1209;48.410;9.054;2024-02-16T03:24:34;96022.03;;;8.88;100.00
2397;BME280;1209;48.410;9.054;2024-02-16T03:26:59;96021.63;;;9.07;100.00
2397;BME280;1209;48.410;9.054;2024-02-16T03:29:25;96025.00;;;9.15;100.00
2397;BME280;1209;48.410;9.054;2024-02-16T03:31:51;96023.50;;;9.21;100.00
2397;BME280;1209;48.410;9.054;2024-02-16T03:34:16;96032.47;;;9.19;100.00
2397;BME280;1209;48.410;9.054;2024-02-16T03:36:42;96035.81;;;8.96;100.00
2397;BME280;1209;48.410;9.054;2024-02-16T03:39:07;96036.97;;;9.02;100.00
2397;BME280;1209;48.410;9.054;2024-02-16T03:41:34;96033.25;;;8.88;100.00
2397;BME280;1209;48.410;9.054;2024-02-16T03:43:59;96036.75;;;8.72;100.00
2397;BME280;1209;48.410;9.054;2024-02-16T03:46:25;96039.06;;;9.06;100.00
2397;BME280;1209;48.410;9.054;2024-02-16T03:48:52;96037.19;;;8.84;100.00
2397;BME280;1209;48.410;9.054;2024-02-16T03:51:17;96033.88;;;8.98;100.00
2397;BME280;1209;48.410;9.054;2024-02-16T03:53:43;96042.69;;;8.89;100.00
2397;BME280;1209;48.410;9.054;2024-02-16T03:56:10;96037.78;;;8.94;100.00
2397;BME280;1209;48.410;9.054;2024-02-16T03:58:36;96045.25;;;8.97;100.00
2397;BME280;1209;48.410;9.054;2024-02-16T04:01:01;96037.50;;;8.89;100.00
2397;BME280;1209;48.410;9.054;2024-02-16T04:03:27;96041.38;;;9.01;100.00
2397;BME280;1209;48.410;9.054;2024-02-16T04:05:52;96044.69;;;8.79;100.00
2397;BME280;1209;48.410;9.054;2024-02-16T04:08:18;96046.41;;;8.95;100.00
2397;BME280;1209;48.410;9.054;2024-02-16T04:10:45;96050.69;;;8.88;100.00
2397;BME280;1209;48.410;9.054;2024-02-16T04:13:10;96055.88;;;8.88;100.00
2397;BME280;1209;48.410;9.054;2024-02-16T04:15:35;96053.25;;;8.96;100.00
2397;BME280;1209;48.410;9.054;2024-02-16T04:18:01;96055.84;;;9.04;100.00
2397;BME280;1209;48.410;9.054;2024-02-16T04:20:26;96051.97;;;8.92;100.00
2397;BME280;1209;48.410;9.054;2024-02-16T04:22:51;96052.94;;;8.99;100.00
2397;BME280;1209;48.410;9.054;2024-02-16T04:25:17;96054.88;;;8.97;100.00
2397;BME280;1209;48.410;9.054;2024-02-16T04:27:42;96051.69;;;8.78;100.00
2397;BME280;1209;48.410;9.054;2024-02-16T04:30:08;96055.22;;;8.94;100.00
2397;BME280;1209;48.410;9.054;2024-02-16T04:32:34;96047.91;;;8.89;100.00
2397;BME280;1209;48.410;9.054;2024-02-16T04:34:59;96053.44;;;8.86;100.00
2397;BME280;1209;48.410;9.054;2024-02-16T04:37:25;96059.09;;;8.98;100.00
2397;BME280;1209;48.410;9.054;2024-02-16T04:39:51;96060.97;;;8.81;100.00
2397;BME280;1209;48.410;9.054;2024-02-16T04:42:16;96060.06;;;8.58;100.00
2397;BME280;1209;48.410;9.054;2024-02-16T04:44:42;96051.34;;;8.81;100.00
2397;BME280;1209;48.410;9.054;2024-02-16T04:47:07;96048.03;;;8.57;100.00
2397;BME280;1209;48.410;9.054;2024-02-16T04:49:34;96046.66;;;8.77;100.00
2397;BME280;1209;48.410;9.054;2024-02-16T04:51:59;96043.38;;;8.83;100.00
2397;BME280;1209;48.410;9.054;2024-02-16T04:54:25;96039.41;;;9.03;100.00
2397;BME280;1209;48.410;9.054;2024-02-16T04:56:50;96044.78;;;8.94;100.00
2397;BME280;1209;48.410;9.054;2024-02-16T04:59:19;96054.22;;;9.03;100.00
2397;BME280;1209;48.410;9.054;2024-02-16T05:01:44;96055.69;;;8.97;100.00
2397;BME280;1209;48.410;9.054;2024-02-16T05:04:13;96058.19;;;8.82;100.00
2397;BME280;1209;48.410;9.054;2024-02-16T05:06:45;96064.03;;;8.84;100.00
2397;BME280;1209;48.410;9.054;2024-02-16T05:09:13;96064.38;;;8.81;100.00
2397;BME280;1209;48.410;9.054;2024-02-16T05:11:45;96066.88;;;8.67;100.00
2397;BME280;1209;48.410;9.054;2024-02-16T05:14:11;96065.75;;;8.61;100.00
2397;BME280;1209;48.410;9.054;2024-02-16T05:16:43;96069.66;;;8.57;100.00
2397;BME280;1209;48.410;9.054;2024-02-16T05:19:09;96076.00;;;8.46;100.00
2397;BME280;1209;48.410;9.054;2024-02-16T05:21:34;96067.41;;;8.38;100.00
2397;BME280;1209;48.410;9.054;2024-02-16T05:24:00;96077.47;;;8.49;100.00
2397;BME280;1209;48.410;9.054;2024-02-16T05:26:25;96078.47;;;8.56;100.00
2397;BME280;1209;48.410;9.054;2024-02-16T05:28:50;96088.06;;;8.39;100.00
2397;BME280;1209;48.410;9.054;2024-02-16T05:31:17;96088.53;;;8.59;100.00
2397;BME280;1209;48.410;9.054;2024-02-16T05:33:48;96090.31;;;8.67;100.00
2397;BME280;1209;48.410;9.054;2024-02-16T05:36:20;96083.63;;;8.72;100.00
2397;BME280;1209;48.410;9.054;2024-02-16T05:38:49;96089.84;;;8.55;100.00
2397;BME280;1209;48.410;9.054;2024-02-16T05:41:17;96084.63;;;8.47;100.00
2397;BME280;1209;48.410;9.054;2024-02-16T05:43:43;96093.09;;;8.57;100.00
2397;BME280;1209;48.410;9.054;2024-02-16T05:46:15;96094.72;;;8.50;100.00
2397;BME280;1209;48.410;9.054;2024-02-16T05:48:42;96090.78;;;8.70;100.00
2397;BME280;1209;48.410;9.054;2024-02-16T05:51:07;96098.59;;;8.70;100.00
2397;BME280;1209;48.410;9.054;2024-02-16T05:53:33;96091.47;;;8.48;100.00
2397;BME280;1209;48.410;9.054;2024-02-16T05:55:59;96095.97;;;8.70;100.00
2397;BME280;1209;48.410;9.054;2024-02-16T05:58:25;96096.84;;;8.46;100.00
2397;BME280;1209;48.410;9.054;2024-02-16T06:00:50;96099.59;;;8.53;100.00
2397;BME280;1209;48.410;9.054;2024-02-16T06:03:16;96098.47;;;8.56;100.00
2397;BME280;1209;48.410;9.054;2024-02-16T06:05:41;96103.16;;;8.60;100.00
2397;BME280;1209;48.410;9.054;2024-02-16T06:08:10;96103.19;;;8.52;100.00
2397;BME280;1209;48.410;9.054;2024-02-16T06:10:35;96106.91;;;8.58;100.00
2397;BME280;1209;48.410;9.054;2024-02-16T06:13:00;96100.91;;;8.57;100.00
2397;BME280;1209;48.410;9.054;2024-02-16T06:15:25;96110.03;;;8.37;100.00
2397;BME280;1209;48.410;9.054;2024-02-16T06:17:51;96110.34;;;8.58;100.00
2397;BME280;1209;48.410;9.054;2024-02-16T06:20:17;96119.75;;;8.67;100.00
2397;BME280;1209;48.410;9.054;2024-02-16T06:22:42;96116.00;;;8.70;100.00
2397;BME280;1209;48.410;9.054;2024-02-16T06:25:08;96123.94;;;8.76;100.00
2397;BME280;1209;48.410;9.054;2024-02-16T06:27:33;96128.50;;;8.74;100.00
2397;BME280;1209;48.410;9.054;2024-02-16T06:29:59;96133.72;;;8.74;100.00
2397;BME280;1209;48.410;9.054;2024-02-16T06:32:24;96135.06;;;8.46;100.00
2397;BME280;1209;48.410;9.054;2024-02-16T06:34:50;96132.75;;;8.51;100.00
2397;BME280;1209;48.410;9.054;2024-02-16T06:37:15;96132.63;;;8.52;100.00
2397;BME280;1209;48.410;9.054;2024-02-16T06:39:40;96144.16;;;8.58;100.00
2397;BME280;1209;48.410;9.054;2024-02-16T06:42:06;96146.41;;;8.77;100.00
2397;BME280;1209;48.410;9.054;2024-02-16T06:44:31;96149.03;;;8.69;100.00
2397;BME280;1209;48.410;9.054;2024-02-16T06:46:56;96153.59;;;8.51;100.00
2397;BME280;1209;48.410;9.054;2024-02-16T06:49:22;96142.03;;;8.45;100.00
2397;BME280;1209;48.410;9.054;2024-02-16T06:51:47;96155.22;;;8.36;100.00
2397;BME280;1209;48.410;9.054;2024-02-16T06:54:12;96157.97;;;8.50;100.00
2397;BME280;1209;48.410;9.054;2024-02-16T06:56:38;96151.97;;;8.42;100.00
2397;BME280;1209;48.410;9.054;2024-02-16T06:59:03;96155.84;;;8.21;100.00
2397;BME280;1209;48.410;9.054;2024-02-16T07:01:28;96157.31;;;8.48;100.00
2397;BME280;1209;48.410;9.054;2024-02-16T07:03:54;96169.69;;;8.38;100.00
2397;BME280;1209;48.410;9.054;2024-02-16T07:06:19;96157.16;;;8.42;100.00
2397;BME280;1209;48.410;9.054;2024-02-16T07:08:45;96169.69;;;8.38;100.00
2397;BME280;1209;48.410;9.054;2024-02-16T07:11:10;96172.28;;;8.46;100.00
2397;BME280;1209;48.410;9.054;2024-02-16T07:13:40;96168.72;;;8.39;100.00
2397;BME280;1209;48.410;9.054;2024-02-16T07:16:06;96179.63;;;8.35;100.00
2397;BME280;1209;48.410;9.054;2024-02-16T07:18:34;96173.75;;;8.49;100.00
2397;BME280;1209;48.410;9.054;2024-02-16T07:21:01;96180.75;;;8.48;100.00
2397;BME280;1209;48.410;9.054;2024-02-16T07:23:26;96176.50;;;8.31;100.00
2397;BME280;1209;48.410;9.054;2024-02-16T07:25:52;96170.03;;;8.43;100.00
2397;BME280;1209;48.410;9.054;2024-02-16T07:28:24;96176.53;;;8.47;100.00
2397;BME280;1209;48.410;9.054;2024-02-16T07:30:51;96178.13;;;8.32;100.00
2397;BME280;1209;48.410;9.054;2024-02-16T07:33:17;96175.88;;;8.37;100.00
2397;BME280;1209;48.410;9.054;2024-02-16T07:35:42;96183.69;;;8.37;100.00
2397;BME280;1209;48.410;9.054;2024-02-16T07:38:09;96188.09;;;8.61;100.00
2397;BME280;1209;48.410;9.054;2024-02-16T07:40:34;96182.88;;;8.61;100.00
2397;BME280;1209;48.410;9.054;2024-02-16T07:43:00;96184.34;;;8.56;100.00
2397;BME280;1209;48.410;9.054;2024-02-16T07:45:25;96189.88;;;8.69;100.00
2397;BME280;1209;48.410;9.054;2024-02-16T07:47:51;96189.06;;;8.52;100.00
2397;BME280;1209;48.410;9.054;2024-02-16T07:50:23;96193.75;;;8.73;100.00
2397;BME280;1209;48.410;9.054;2024-02-16T07:52:49;96187.91;;;8.46;100.00
2397;BME280;1209;48.410;9.054;2024-02-16T07:55:15;96191.16;;;8.65;100.00
2397;BME280;1209;48.410;9.054;2024-02-16T07:57:43;96187.22;;;8.85;100.00
2397;BME280;1209;48.410;9.054;2024-02-16T08:00:09;96196.34;;;8.89;100.00
2397;BME280;1209;48.410;9.054;2024-02-16T08:02:36;96189.69;;;8.78;100.00
2397;BME280;1209;48.410;9.054;2024-02-16T08:05:01;96190.66;;;8.77;100.00
2397;BME280;1209;48.410;9.054;2024-02-16T08:07:27;96193.56;;;8.99;100.00
2397;BME280;1209;48.410;9.054;2024-02-16T08:09:52;96191.44;;;9.02;100.00
2397;BME280;1209;48.410;9.054;2024-02-16T08:12:17;96190.41;;;9.20;100.00
2397;BME280;1209;48.410;9.054;2024-02-16T08:14:43;96191.16;;;9.36;100.00
2397;BME280;1209;48.410;9.054;2024-02-16T08:17:10;96199.03;;;9.67;100.00
2397;BME280;1209;48.410;9.054;2024-02-16T08:19:37;96193.94;;;9.74;100.00
2397;BME280;1209;48.410;9.054;2024-02-16T08:22:03;96198.75;;;9.93;100.00
2397;BME280;1209;48.410;9.054;2024-02-16T08:24:34;96203.63;;;9.88;100.00
2397;BME280;1209;48.410;9.054;2024-02-16T08:27:00;96202.28;;;10.00;100.00
2397;BME280;1209;48.410;9.054;2024-02-16T08:29:25;96198.13;;;9.83;100.00
2397;BME280;1209;48.410;9.054;2024-02-16T08:31:51;96216.44;;;10.06;100.00
2397;BME280;1209;48.410;9.054;2024-02-16T08:34:16;96213.56;;;10.24;100.00
2397;BME280;1209;48.410;9.054;2024-02-16T08:36:45;96219.63;;;10.16;100.00
2397;BME280;1209;48.410;9.054;2024-02-16T08:39:12;96220.66;;;10.07;100.00
2397;BME280;1209;48.410;9.054;2024-02-16T08:41:38;96220.31;;;10.10;100.00
2397;BME280;1209;48.410;9.054;2024-02-16T08:44:04;96225.31;;;10.20;100.00
2397;BME280;1209;48.410;9.054;2024-02-16T08:46:29;96225.81;;;10.23;100.00
2397;BME280;1209;48.410;9.054;2024-02-16T08:48:55;96235.22;;;10.32;100.00
2397;BME280;1209;48.410;9.054;2024-02-16T08:51:21;96231.84;;;10.69;100.00
2397;BME280;1209;48.410;9.054;2024-02-16T08:53:46;96239.88;;;11.06;100.00
2397;BME280;1209;48.410;9.054;2024-02-16T08:56:12;96237.19;;;11.43;100.00
2397;BME280;1209;48.410;9.054;2024-02-16T08:58:38;96231.41;;;11.62;100.00
2397;BME280;1209;48.410;9.054;2024-02-16T09:01:04;96236.28;;;11.95;100.00
2397;BME280;1209;48.410;9.054;2024-02-16T09:03:29;96235.94;;;12.19;100.00
2397;BME280;1209;48.410;9.054;2024-02-16T09:06:00;96241.06;;;12.27;100.00
2397;BME280;1209;48.410;9.054;2024-02-16T09:08:25;96250.00;;;12.33;100.00
2397;BME280;1209;48.410;9.054;2024-02-16T09:10:51;96248.41;;;12.53;100.00
2397;BME280;1209;48.410;9.054;2024-02-16T09:13:19;96253.56;;;12.89;100.00
2397;BME280;1209;48.410;9.054;2024-02-16T09:15:44;96249.81;;;12.99;100.00
2397;BME280;1209;48.410;9.054;2024-02-16T09:18:10;96253.09;;;12.79;100.00
2397;BME280;1209;48.410;9.054;2024-02-16T09:20:35;96261.94;;;12.78;100.00
2397;BME280;1209;48.410;9.054;2024-02-16T09:23:00;96263.00;;;12.63;100.00
2397;BME280;1209;48.410;9.054;2024-02-16T09:25:26;96257.13;;;12.39;100.00
2397;BME280;1209;48.410;9.054;2024-02-16T09:27:51;96266.22;;;12.43;100.00
2397;BME280;1209;48.410;9.054;2024-02-16T09:30:16;96266.16;;;12.37;100.00
2397;BME280;1209;48.410;9.054;2024-02-16T09:32:41;96272.78;;;12.33;100.00
2397;BME280;1209;48.410;9.054;2024-02-16T09:35:09;96274.09;;;12.43;100.00
2397;BME280;1209;48.410;9.054;2024-02-16T09:37:39;96273.09;;;12.44;100.00
2397;BME280;1209;48.410;9.054;2024-02-16T09:40:05;96271.34;;;12.51;100.00
2397;BME280;1209;48.410;9.054;2024-02-16T09:42:32;96275.34;;;12.69;100.00
2397;BME280;1209;48.410;9.054;2024-02-16T09:45:03;96275.41;;;12.75;100.00
2397;BME280;1209;48.410;9.054;2024-02-16T09:47:30;96285.97;;;12.82;100.00
2397;BME280;1209;48.410;9.054;2024-02-16T09:49:58;96278.47;;;12.79;100.00
2397;BME280;1209;48.410;9.054;2024-02-16T09:52:23;96282.97;;;12.85;100.00
2397;BME280;1209;48.410;9.054;2024-02-16T09:54:49;96287.03;;;12.87;100.00
2397;BME280;1209;48.410;9.054;2024-02-16T09:57:17;96298.72;;;13.13;100.00
2397;BME280;1209;48.410;9.054;2024-02-16T09:59:42;96293.84;;;13.59;100.00
2397;BME280;1209;48.410;9.054;2024-02-16T10:02:08;96299.13;;;14.00;97.64
2397;BME280;1209;48.410;9.054;2024-02-16T10:04:34;96305.66;;;14.59;97.93
2397;BME280;1209;48.410;9.054;2024-02-16T10:06:59;96303.53;;;15.22;87.76
2397;BME280;1209;48.410;9.054;2024-02-16T10:09:26;96297.84;;;15.71;84.87
2397;BME280;1209;48.410;9.054;2024-02-16T10:11:52;96305.63;;;16.17;82.21
2397;BME280;1209;48.410;9.054;2024-02-16T10:14:17;96314.31;;;16.24;81.88
2397;BME280;1209;48.410;9.054;2024-02-16T10:16:45;96312.97;;;16.09;81.66
2397;BME280;1209;48.410;9.054;2024-02-16T10:19:11;96312.75;;;16.03;80.59
2397;BME280;1209;48.410;9.054;2024-02-16T10:21:36;96312.91;;;16.22;80.83
2397;BME280;1209;48.410;9.054;2024-02-16T10:24:05;96315.44;;;16.48;78.94
2397;BME280;1209;48.410;9.054;2024-02-16T10:26:39;96310.13;;;16.61;79.38
2397;BME280;1209;48.410;9.054;2024-02-16T10:29:08;96317.09;;;16.43;79.61
2397;BME280;1209;48.410;9.054;2024-02-16T10:31:34;96318.63;;;16.12;79.31
2397;BME280;1209;48.410;9.054;2024-02-16T10:34:01;96312.34;;;16.06;80.31
2397;BME280;1209;48.410;9.054;2024-02-16T10:36:31;96320.66;;;16.10;82.30
2397;BME280;1209;48.410;9.054;2024-02-16T10:38:57;96312.78;;;15.97;80.74
2397;BME280;1209;48.410;9.054;2024-02-16T10:41:26;96324.53;;;16.01;83.88
2397;BME280;1209;48.410;9.054;2024-02-16T10:43:53;96322.91;;;15.93;82.03
2397;BME280;1209;48.410;9.054;2024-02-16T10:46:19;96324.56;;;15.88;82.64
2397;BME280;1209;48.410;9.054;2024-02-16T10:48:45;96322.91;;;16.00;82.95
2397;BME280;1209;48.410;9.054;2024-02-16T10:51:12;96321.69;;;16.02;83.28
2397;BME280;1209;48.410;9.054;2024-02-16T10:53:40;96329.59;;;16.09;81.18
2397;BME280;1209;48.410;9.054;2024-02-16T10:56:06;96328.59;;;15.97;81.18
2397;BME280;1209;48.410;9.054;2024-02-16T10:58:32;96331.41;;;15.95;81.76
2397;BME280;1209;48.410;9.054;2024-02-16T11:01:08;96330.19;;;15.98;80.15
2397;BME280;1209;48.410;9.054;2024-02-16T11:03:33;96322.09;;;15.99;80.85
2397;BME280;1209;48.410;9.054;2024-02-16T11:05:58;96326.53;;;16.12;80.30
2397;BME280;1209;48.410;9.054;2024-02-16T11:08:24;96329.38;;;15.97;80.93
2397;BME280;1209;48.410;9.054;2024-02-16T11:10:57;96319.44;;;16.06;80.76
2397;BME280;1209;48.410;9.054;2024-02-16T11:13:24;96322.09;;;15.99;82.11
2397;BME280;1209;48.410;9.054;2024-02-16T11:16:00;96324.72;;;16.06;80.84
2397;BME280;1209;48.410;9.054;2024-02-16T11:18:27;96327.97;;;16.01;82.26
2397;BME280;1209;48.410;9.054;2024-02-16T11:20:52;96326.97;;;15.89;82.31
2397;BME280;1209;48.410;9.054;2024-02-16T11:23:26;96327.41;;;15.86;82.92
2397;BME280;1209;48.410;9.054;2024-02-16T11:25:53;96324.56;;;15.88;84.89
2397;BME280;1209;48.410;9.054;2024-02-16T11:28:19;96329.78;;;16.14;82.78
2397;BME280;1209;48.410;9.054;2024-02-16T11:30:44;96324.84;;;16.31;83.06
2397;BME280;1209;48.410;9.054;2024-02-16T11:33:12;96325.34;;;16.53;81.67
2397;BME280;1209;48.410;9.054;2024-02-16T11:35:37;96322.91;;;16.51;83.24
2397;BME280;1209;48.410;9.054;2024-02-16T11:38:04;96331.28;;;16.42;83.02
2397;BME280;1209;48.410;9.054;2024-02-16T11:40:29;96327.41;;;16.44;83.59
2397;BME280;1209;48.410;9.054;2024-02-16T11:42:59;96324.81;;;16.37;84.22
2397;BME280;1209;48.410;9.054;2024-02-16T11:45:24;96316.06;;;16.44;85.59
2397;BME280;1209;48.410;9.054;2024-02-16T11:47:50;96313.84;;;16.41;84.11
2397;BME280;1209;48.410;9.054;2024-02-16T11:50:17;96326.28;;;16.27;86.30
2397;BME280;1209;48.410;9.054;2024-02-16T11:52:43;96327.06;;;16.34;84.98
2397;BME280;1209;48.410;9.054;2024-02-16T11:55:09;96317.69;;;16.45;85.35
2397;BME280;1209;48.410;9.054;2024-02-16T11:57:36;96322.72;;;16.53;85.07
2397;BME280;1209;48.410;9.054;2024-02-16T12:00:03;96315.50;;;16.80;82.83
2397;BME280;1209;48.410;9.054;2024-02-16T12:02:36;96318.16;;;16.80;83.50
2397;BME280;1209;48.410;9.054;2024-02-16T12:05:02;96312.94;;;16.98;81.91
2397;BME280;1209;48.410;9.054;2024-02-16T12:07:28;96324.78;;;16.89;82.16
2397;BME280;1209;48.410;9.054;2024-02-16T12:10:01;96316.75;;;16.77;83.64
2397;BME280;1209;48.410;9.054;2024-02-16T12:12:27;96318.63;;;16.63;83.28
2397;BME280;1209;48.410;9.054;2024-02-16T12:14:56;96329.81;;;16.65;84.38
2397;BME280;1209;48.410;9.054;2024-02-16T12:17:21;96318.03;;;16.68;86.40
2397;BME280;1209;48.410;9.054;2024-02-16T12:19:47;96320.41;;;16.76;84.20
2397;BME280;1209;48.410;9.054;2024-02-16T12:22:22;96316.38;;;16.74;84.50
2397;BME280;1209;48.410;9.054;2024-02-16T12:24:49;96317.00;;;16.62;86.66
2397;BME280;1209;48.410;9.054;2024-02-16T12:27:15;96315.34;;;16.75;85.75
2397;BME280;1209;48.410;9.054;2024-02-16T12:29:41;96317.13;;;16.81;86.86
2397;BME280;1209;48.410;9.054;2024-02-16T12:32:06;96313.69;;;16.80;86.91
2397;BME280;1209;48.410;9.054;2024-02-16T12:34:34;96319.84;;;16.99;88.84
2397;BME280;1209;48.410;9.054;2024-02-16T12:36:59;96314.41;;;16.94;87.09
2397;BME280;1209;48.410;9.054;2024-02-16T12:39:25;96319.84;;;17.06;86.98
2397;BME280;1209;48.410;9.054;2024-02-16T12:41:50;96324.09;;;17.07;87.29
2397;BME280;1209;48.410;9.054;2024-02-16T12:44:15;96319.56;;;17.14;86.40
2397;BME280;1209;48.410;9.054;2024-02-16T12:46:41;96323.28;;;17.06;89.63
2397;BME280;1209;48.410;9.054;2024-02-16T12:49:08;96322.22;;;17.14;86.44
2397;BME280;1209;48.410;9.054;2024-02-16T12:51:33;96314.63;;;17.24;87.39
2397;BME280;1209;48.410;9.054;2024-02-16T12:53:58;96319.72;;;17.19;87.56
2397;BME280;1209;48.410;9.054;2024-02-16T12:56:25;96321.28;;;17.26;89.16
2397;BME280;1209;48.410;9.054;2024-02-16T12:58:51;96327.88;;;17.17;89.76
2397;BME280;1209;48.410;9.054;2024-02-16T13:01:16;96318.75;;;17.13;88.69
2397;BME280;1209;48.410;9.054;2024-02-16T13:03:43;96329.16;;;17.02;90.33
2397;BME280;1209;48.410;9.054;2024-02-16T13:06:08;96320.09;;;16.91;92.92
2397;BME280;1209;48.410;9.054;2024-02-16T13:08:34;96326.03;;;16.86;92.84
2397;BME280;1209;48.410;9.054;2024-02-16T13:10:59;96316.53;;;16.79;94.59
2397;BME280;1209;48.410;9.054;2024-02-16T13:13:25;96325.69;;;16.76;93.56